Главная страница
METAR-TAF:

METAR-TAF

Аэропорты :

Брюссель, Бельгия

широта: 50-54N, долгота: 004-32E, высота над уровнем моря: 55 м

Текущие метеонаблюдения

Эта сводка был подготовлена 35 минут назад, в 11:20 UTC
Ветер 2 Узел переменных направлений
Температура 14°C
Влажность 63%
Давление 1029 hPa
Видимость: 8000 м
Рассеянная облачность на высоте 4200 фута

METAR: EBBR 211120Z VRB02KT 8000 BKN042 14/07 Q1029 NOSIG

Время: 13:55 (11:55 UTC)

Прогноз

Эта сводка был подготовлена 45 минут назад, в 11:10 UTC
Прогноз действительный с 21-го 12 UTC до 22-го 18 UTC
Ветер 5 Узел от северо-восточный
Видимость 10 км и более
Отдельные облака на высоте 4500 фута
временами
С 21-го 22 UTC до 22-го 03 UTC
Видимость: 4000 м
дымка
временами
С 22-го 05 UTC до 22-го 07 UTC
Видимость: 3000 м
Рассеянная облачность на высоте 600 фута
дождь, Морось

TAF: EBBR 211110Z 2112/2218 04005KT 9999 SCT045 TEMPO 2122/2203 4000 BR TEMPO 2205/2207 3000 RADZ BKN006

Метеонаблюдения и прогнозы для более 4000 аэропортов (сводки METAR и TAF).

Имеющиеся станции представлены на карте желтыми и красными точками.

Чтобы увидеть название станции, наведите на нее мышь.

Затем щелкните, чтобы увидеть метеонаблюдения и метеопрогнозы.

Управление картой: чтобы увеличить масштаб, щелкните зеленые кнопки с черным крестиком; чтобы уменьшить масштаб, щелкните зеленую кнопку с тире; для просмотра соседних карт щелкайте зеленые стрелки.


METAR-TAF: